Time;durP1;ratioP1;P1;durP2;ratioP2;P2;SDS_P1;SDS_P2;PMS_P1;PMS_P2;Temp;Humidity;BMP_temperature;BMP_pressure;BME280_temperature;BME280_humidity;BME280_pressure;Samples;Min_cycle;Max_cycle;Signal;HPM_P1;HPM_P2
2021/06/02 00:00:38;;;;;;;;;;;;;;;21.89;48.93;100497.19;5037776;28;827;-57
2021/06/02 00:03:03;;;;;;;;;;;;;;;21.86;48.71;100498.63;5037362;28;960;-56
2021/06/02 00:05:29;;;;;;;;;;;;;;;22.09;48.35;100497.78;5037535;28;791;-55
2021/06/02 00:07:54;;;;;;;;;;;;;;;22.03;48.39;100505.41;5019111;28;1902;-57
2021/06/02 00:10:20;;;;;;;;;;;;;;;22.00;48.41;100506.03;5037350;28;855;-57
2021/06/02 00:12:46;;;;;;;;;;;;;;;22.17;47.98;100517.19;5037279;28;898;-57
2021/06/02 00:15:11;;;;;;;;;;;;;;;22.00;48.27;100523.47;5036732;28;1073;-53
2021/06/02 00:17:40;;;;;;;;;;;;;;;22.02;48.46;100525.91;5036943;28;1011;-56
2021/06/02 00:20:06;;;;;;;;;;;;;;;22.11;48.23;100524.00;5037409;28;851;-56
2021/06/02 00:22:31;;;;;;;;;;;;;;;22.30;47.51;100532.09;5037056;28;840;-56
2021/06/02 00:24:57;;;;;;;;;;;;;;;22.29;47.90;100535.19;5037189;28;807;-57
2021/06/02 00:27:22;;;;;;;;;;;;;;;22.20;47.93;100538.75;5037437;28;768;-56
2021/06/02 00:29:48;;;;;;;;;;;;;;;22.19;47.96;100537.09;5019265;28;1910;-57
2021/06/02 00:32:13;;;;;;;;;;;;;;;22.16;48.05;100529.44;5019145;28;1012;-56
2021/06/02 00:34:39;;;;;;;;;;;;;;;22.25;47.78;100531.44;5036844;28;820;-57
2021/06/02 00:37:05;;;;;;;;;;;;;;;22.28;47.99;100530.78;5037216;28;790;-56
2021/06/02 00:39:33;;;;;;;;;;;;;;;22.13;48.02;100548.63;5002892;28;2124;-57
2021/06/02 00:41:59;;;;;;;;;;;;;;;22.19;48.00;100531.56;5036920;28;745;-56
2021/06/02 00:44:24;;;;;;;;;;;;;;;22.26;47.76;100541.34;5018059;28;741;-57
2021/06/02 00:46:50;;;;;;;;;;;;;;;22.03;48.28;100535.84;5036511;28;975;-57
2021/06/02 00:49:23;;;;;;;;;;;;;;;22.18;48.14;100540.19;5036344;28;1913;-56
2021/06/02 00:52:11;;;;;;;;;;;;;;;22.26;47.95;100544.13;5036440;28;1136;-56
2021/06/02 00:54:37;;;;;;;;;;;;;;;22.31;47.51;100539.25;5036695;28;868;-54
2021/06/02 00:57:18;;;;;;;;;;;;;;;22.27;47.84;100543.00;5036709;28;806;-54
2021/06/02 00:59:44;;;;;;;;;;;;;;;22.39;47.50;100544.06;5036612;28;805;-57
2021/06/02 01:02:13;;;;;;;;;;;;;;;21.82;49.12;100541.91;5036303;28;948;-56
2021/06/02 01:04:39;;;;;;;;;;;;;;;21.49;49.85;100547.66;5036316;28;779;-56
2021/06/02 01:07:05;;;;;;;;;;;;;;;21.27;49.54;100544.88;5036344;28;788;-58
2021/06/02 01:09:30;;;;;;;;;;;;;;;21.51;49.80;100545.38;5036329;28;1973;-56
2021/06/02 01:11:55;;;;;;;;;;;;;;;21.85;48.70;100546.84;5018746;28;801;-57
2021/06/02 01:14:21;;;;;;;;;;;;;;;21.78;48.99;100551.97;5018490;28;792;-57
2021/06/02 01:16:49;;;;;;;;;;;;;;;21.65;48.95;100544.56;5036174;28;1005;-57
2021/06/02 01:19:21;;;;;;;;;;;;;;;21.60;48.95;100552.97;5036298;28;940;-57
2021/06/02 01:21:54;;;;;;;;;;;;;;;21.57;49.47;100548.06;5036113;28;744;-55
2021/06/02 01:24:19;;;;;;;;;;;;;;;21.66;49.30;100544.25;5035649;28;804;-57
2021/06/02 01:26:45;;;;;;;;;;;;;;;21.72;49.08;100555.19;5036154;28;776;-57
2021/06/02 01:29:10;;;;;;;;;;;;;;;21.70;49.21;100555.50;5036222;28;1971;-57
2021/06/02 01:31:43;;;;;;;;;;;;;;;21.67;49.37;100553.34;5036097;28;796;-57
2021/06/02 01:34:12;;;;;;;;;;;;;;;22.05;48.20;100556.56;5034416;28;894;-53
2021/06/02 01:36:46;;;;;;;;;;;;;;;21.99;48.36;100555.06;5036070;28;752;-55
2021/06/02 01:39:12;;;;;;;;;;;;;;;21.78;48.90;100554.72;5018995;28;801;-57
2021/06/02 01:41:56;;;;;;;;;;;;;;;21.71;48.66;100554.34;5035984;28;797;-57
2021/06/02 01:44:40;;;;;;;;;;;;;;;21.68;49.15;100560.53;5036046;28;827;-57
2021/06/02 01:47:15;;;;;;;;;;;;;;;21.76;48.89;100562.56;5035729;28;1011;-57
2021/06/02 01:49:59;;;;;;;;;;;;;;;22.13;47.98;100559.69;5035704;28;1973;-56
2021/06/02 01:52:40;;;;;;;;;;;;;;;21.84;48.51;100574.81;5035971;28;1152;-57
2021/06/02 01:55:05;;;;;;;;;;;;;;;21.70;48.71;100572.94;5036217;28;799;-56
2021/06/02 01:57:30;;;;;;;;;;;;;;;21.51;49.32;100578.59;5036050;28;768;-56
2021/06/02 02:00:05;;;;;;;;;;;;;;;21.45;49.66;100579.84;5035634;28;737;-56
2021/06/02 02:02:57;;;;;;;;;;;;;;;21.59;49.26;100584.53;5035826;28;948;-51
2021/06/02 02:05:41;;;;;;;;;;;;;;;21.93;48.36;100595.06;5035435;28;756;-57
2021/06/02 02:08:13;;;;;;;;;;;;;;;21.99;48.33;100590.22;5036044;28;1918;-56
2021/06/02 02:10:38;;;;;;;;;;;;;;;22.24;47.51;100597.06;5035853;28;737;-53
2021/06/02 02:13:30;;;;;;;;;;;;;;;22.21;47.70;100597.69;5035276;28;776;-54
2021/06/02 02:16:10;;;;;;;;;;;;;;;22.32;47.46;100590.75;5019817;28;1079;-55
2021/06/02 02:18:38;;;;;;;;;;;;;;;22.35;47.19;100594.88;5035499;28;956;-56
2021/06/02 02:21:12;;;;;;;;;;;;;;;22.34;47.25;100594.06;5035641;28;800;-57
2021/06/02 02:23:56;;;;;;;;;;;;;;;21.62;49.12;100593.03;5035976;28;751;-56
2021/06/02 02:26:47;;;;;;;;;;;;;;;21.52;49.16;100593.28;5035209;28;816;-57
2021/06/02 02:29:13;;;;;;;;;;;;;;;21.53;49.51;100587.44;5033637;28;1989;-54
2021/06/02 02:31:43;;;;;;;;;;;;;;;21.95;48.27;100600.28;5035734;28;1055;-57
2021/06/02 02:34:08;;;;;;;;;;;;;;;22.22;47.57;100602.13;5035135;28;999;-56
2021/06/02 02:36:40;;;;;;;;;;;;;;;21.98;48.11;100608.78;5038609;28;835;-56
2021/06/02 02:39:21;;;;;;;;;;;;;;;21.77;48.73;100615.94;5039245;28;832;-56
2021/06/02 02:41:46;;;;;;;;;;;;;;;21.57;48.97;100615.28;5039086;28;869;-57
2021/06/02 02:44:11;;;;;;;;;;;;;;;21.70;48.70;100608.09;5039374;28;848;-53
2021/06/02 02:46:39;;;;;;;;;;;;;;;21.65;48.90;100616.50;5038972;28;785;-57
2021/06/02 02:49:16;;;;;;;;;;;;;;;21.80;48.41;100618.09;5036195;28;1979;-57
2021/06/02 02:51:54;;;;;;;;;;;;;;;21.93;48.21;100622.75;5039035;28;1116;-53
2021/06/02 02:54:25;;;;;;;;;;;;;;;22.05;48.07;100624.97;5022019;28;809;-57
2021/06/02 02:57:09;;;;;;;;;;;;;;;22.25;47.30;100618.09;5021054;28;829;-56
2021/06/02 02:59:38;;;;;;;;;;;;;;;22.11;47.73;100618.16;5038971;28;780;-57
2021/06/02 03:02:16;;;;;;;;;;;;;;;22.08;47.77;100624.34;5038067;28;952;-56
2021/06/02 03:04:51;;;;;;;;;;;;;;;21.50;49.00;100626.75;5038350;28;803;-57
2021/06/02 03:07:17;;;;;;;;;;;;;;;21.58;48.77;100632.72;5020977;28;867;-56
2021/06/02 03:09:53;;;;;;;;;;;;;;;21.60;48.92;100633.22;5020892;28;1971;-56
2021/06/02 03:12:37;;;;;;;;;;;;;;;21.67;48.81;100639.13;5020751;28;824;-57
2021/06/02 03:15:03;;;;;;;;;;;;;;;21.77;48.63;100636.16;5038272;28;823;-54
2021/06/02 03:17:37;;;;;;;;;;;;;;;21.76;48.46;100636.47;5037990;28;1053;-51
2021/06/02 03:20:21;;;;;;;;;;;;;;;21.95;48.18;100639.03;5019857;28;1260;-53
2021/06/02 03:22:52;;;;;;;;;;;;;;;22.03;47.70;100643.84;5038495;28;766;-53
2021/06/02 03:25:24;;;;;;;;;;;;;;;21.93;48.14;100642.13;5038309;28;1028;-49
2021/06/02 03:28:08;;;;;;;;;;;;;;;22.06;47.79;100651.50;5038155;28;752;-48
2021/06/02 03:30:40;;;;;;;;;;;;;;;22.07;47.72;100655.13;5038328;28;808;-58
2021/06/02 03:33:24;;;;;;;;;;;;;;;22.19;47.37;100650.63;5020147;28;967;-57
2021/06/02 03:36:02;;;;;;;;;;;;;;;22.22;47.52;100651.97;5037924;28;776;-55
2021/06/02 03:38:36;;;;;;;;;;;;;;;22.23;47.43;100659.13;5038202;28;855;-55
2021/06/02 03:41:07;;;;;;;;;;;;;;;22.25;47.39;100661.59;5037827;28;724;-58
2021/06/02 03:43:40;;;;;;;;;;;;;;;22.22;47.21;100660.28;5036891;28;792;-51
2021/06/02 03:46:06;;;;;;;;;;;;;;;22.32;47.25;100661.97;5036803;28;866;-58
2021/06/02 03:48:37;;;;;;;;;;;;;;;22.40;46.74;100666.78;5036429;28;1914;-58
2021/06/02 03:51:19;;;;;;;;;;;;;;;22.29;46.95;100665.38;5037906;28;783;-49
2021/06/02 03:54:03;;;;;;;;;;;;;;;22.01;47.59;100665.50;5018762;28;801;-53
2021/06/02 03:56:31;;;;;;;;;;;;;;;21.90;47.92;100675.97;5017124;28;765;-54
2021/06/02 03:59:16;;;;;;;;;;;;;;;21.83;47.76;100679.16;5000514;28;816;-58
2021/06/02 04:01:51;;;;;;;;;;;;;;;21.52;48.67;100674.31;5018212;28;980;-56
2021/06/02 04:04:29;;;;;;;;;;;;;;;21.66;48.79;100679.03;5036562;28;913;-59
2021/06/02 04:06:57;;;;;;;;;;;;;;;21.64;48.79;100681.25;5038088;28;801;-57
2021/06/02 04:09:26;;;;;;;;;;;;;;;21.94;47.79;100685.31;5037492;28;1913;-47
2021/06/02 04:12:16;;;;;;;;;;;;;;;22.08;47.58;100679.72;5037514;28;780;-58
2021/06/02 04:14:42;;;;;;;;;;;;;;;21.98;47.77;100686.31;5018588;28;1159;-58
2021/06/02 04:17:08;;;;;;;;;;;;;;;21.80;48.17;100685.34;5036770;28;1048;-60
2021/06/02 04:19:34;;;;;;;;;;;;;;;21.62;48.32;100689.06;5018965;28;817;-50
2021/06/02 04:22:08;;;;;;;;;;;;;;;21.64;48.40;100686.81;5037416;28;871;-59
2021/06/02 04:24:35;;;;;;;;;;;;;;;21.68;48.75;100688.63;5036938;28;757;-61
2021/06/02 04:27:00;;;;;;;;;;;;;;;21.68;48.55;100690.59;5036844;28;848;-58
2021/06/02 04:29:26;;;;;;;;;;;;;;;21.77;48.23;100697.03;5019532;28;1973;-60
2021/06/02 04:31:52;;;;;;;;;;;;;;;21.76;48.36;100700.94;5014563;28;929;-59
2021/06/02 04:34:19;;;;;;;;;;;;;;;21.82;48.08;100707.16;5035338;28;940;-59
2021/06/02 04:36:45;;;;;;;;;;;;;;;21.98;47.77;100707.63;5036857;28;808;-60
2021/06/02 04:39:10;;;;;;;;;;;;;;;21.77;48.33;100708.09;5035902;28;889;-54
2021/06/02 04:41:38;;;;;;;;;;;;;;;21.84;48.00;100711.28;5018572;28;1202;-56
2021/06/02 04:44:04;;;;;;;;;;;;;;;21.77;48.09;100712.81;5035953;28;932;-57
2021/06/02 04:46:29;;;;;;;;;;;;;;;21.30;49.21;100716.50;5017771;28;899;-57
2021/06/02 04:48:54;;;;;;;;;;;;;;;21.30;49.43;100722.03;5035836;28;1969;-57
2021/06/02 04:51:26;;;;;;;;;;;;;;;21.48;48.74;100720.31;5036278;28;1104;-57
2021/06/02 04:54:10;;;;;;;;;;;;;;;21.43;49.01;100720.41;5036137;28;892;-51
2021/06/02 04:56:54;;;;;;;;;;;;;;;21.47;49.10;100726.94;5036135;28;1069;-57
2021/06/02 04:59:23;;;;;;;;;;;;;;;21.53;48.65;100733.22;5035904;28;772;-52
2021/06/02 05:02:03;;;;;;;;;;;;;;;21.47;48.94;100732.47;5035273;28;944;-56
2021/06/02 05:04:48;;;;;;;;;;;;;;;21.66;48.31;100739.91;5035762;28;861;-57
2021/06/02 05:07:13;;;;;;;;;;;;;;;21.69;48.15;100742.03;5036349;28;879;-57
2021/06/02 05:09:57;;;;;;;;;;;;;;;21.57;48.71;100744.50;5035360;28;1918;-57
2021/06/02 05:12:23;;;;;;;;;;;;;;;21.58;48.50;100749.72;5036205;28;796;-57
2021/06/02 05:15:06;;;;;;;;;;;;;;;21.76;48.19;100753.50;5034209;28;893;-56
2021/06/02 05:17:44;;;;;;;;;;;;;;;21.90;47.77;100755.44;5035448;28;1191;-50
2021/06/02 05:20:37;;;;;;;;;;;;;;;22.03;47.57;100760.13;5036102;28;1013;-50
2021/06/02 05:23:21;;;;;;;;;;;;;;;22.03;47.31;100762.91;5020393;28;824;-57
2021/06/02 05:26:05;;;;;;;;;;;;;;;21.90;47.59;100767.34;5035826;28;756;-51
2021/06/02 05:28:49;;;;;;;;;;;;;;;22.08;47.26;100768.31;5034794;28;1975;-57
2021/06/02 05:31:33;;;;;;;;;;;;;;;22.08;47.33;100773.88;5033311;28;1093;-59
2021/06/02 05:34:11;;;;;;;;;;;;;;;22.25;46.89;100773.19;5034283;28;999;-56
2021/06/02 05:36:36;;;;;;;;;;;;;;;22.16;47.15;100775.06;5035986;28;772;-52
2021/06/02 05:39:12;;;;;;;;;;;;;;;22.34;46.90;100787.16;5034219;28;932;-56
2021/06/02 05:41:56;;;;;;;;;;;;;;;22.36;46.69;100779.38;5035785;28;760;-49
2021/06/02 05:44:40;;;;;;;;;;;;;;;22.17;47.09;100787.78;5034352;28;897;-49
2021/06/02 05:47:18;;;;;;;;;;;;;;;21.90;47.70;100785.91;5033547;28;869;-57
2021/06/02 05:49:56;;;;;;;;;;;;;;;21.74;47.73;100785.38;5035173;28;1910;-56
2021/06/02 05:52:37;;;;;;;;;;;;;;;21.71;48.12;100792.34;5034586;28;885;-58
2021/06/02 05:55:21;;;;;;;;;;;;;;;21.56;48.69;100795.44;5033525;28;889;-59
2021/06/02 05:58:05;;;;;;;;;;;;;;;21.81;48.14;100786.63;5034436;28;904;-46
2021/06/02 06:00:30;;;;;;;;;;;;;;;21.79;48.29;100794.41;5034943;28;1181;-48
2021/06/02 06:03:02;;;;;;;;;;;;;;;21.81;47.96;100797.69;5032097;28;897;-52
2021/06/02 06:05:29;;;;;;;;;;;;;;;22.11;47.40;100792.63;5029815;28;1073;-54
2021/06/02 06:08:13;;;;;;;;;;;;;;;22.12;47.47;100796.19;5034278;28;1204;-57
2021/06/02 06:10:44;;;;;;;;;;;;;;;21.92;47.81;100792.75;5037247;28;745;-58
2021/06/02 06:13:28;;;;;;;;;;;;;;;21.87;48.05;100790.09;5039736;28;833;-59
2021/06/02 06:16:09;;;;;;;;;;;;;;;21.85;48.14;100793.19;5037537;28;1100;-57
2021/06/02 06:18:47;;;;;;;;;;;;;;;21.87;48.06;100796.44;5038955;28;999;-57
2021/06/02 06:21:15;;;;;;;;;;;;;;;21.97;47.74;100798.19;5038391;28;1009;-53
2021/06/02 06:23:40;;;;;;;;;;;;;;;22.18;47.30;100798.56;5037345;28;881;-58
2021/06/02 06:26:08;;;;;;;;;;;;;;;22.01;47.67;100796.44;5036331;28;932;-58
2021/06/02 06:28:36;;;;;;;;;;;;;;;22.03;47.63;100807.19;5028863;28;1942;-58
2021/06/02 06:31:02;;;;;;;;;;;;;;;21.53;48.69;100797.69;5030842;28;925;-57
2021/06/02 06:33:27;;;;;;;;;;;;;;;21.62;48.87;100788.69;5037414;28;904;-50
2021/06/02 06:35:54;;;;;;;;;;;;;;;22.09;47.73;100800.44;5038226;28;933;-59
2021/06/02 06:38:39;;;;;;;;;;;;;;;22.26;47.06;100796.16;5030926;28;869;-59
2021/06/02 06:41:05;;;;;;;;;;;;;;;21.81;48.10;100797.69;5024008;28;902;-48
2021/06/02 06:43:30;;;;;;;;;;;;;;;21.76;48.40;100792.25;5036480;28;981;-51
2021/06/02 06:45:56;;;;;;;;;;;;;;;21.76;48.39;100806.09;5028299;28;893;-51
2021/06/02 06:48:22;;;;;;;;;;;;;;;21.60;48.86;100805.59;5021409;28;1914;-56
2021/06/02 06:50:54;;;;;;;;;;;;;;;21.76;48.44;100808.06;5033179;28;1114;-52
2021/06/02 06:53:20;;;;;;;;;;;;;;;21.61;48.68;100815.53;5028377;28;1213;-55
2021/06/02 06:55:45;;;;;;;;;;;;;;;21.91;48.18;100820.75;5025099;28;964;-50
2021/06/02 06:58:11;;;;;;;;;;;;;;;21.97;47.75;100811.22;5020018;28;963;-49
2021/06/02 07:00:36;;;;;;;;;;;;;;;21.82;48.26;100820.66;5024242;28;905;-49
2021/06/02 07:03:02;;;;;;;;;;;;;;;22.02;47.89;100819.41;5028661;28;1007;-56
2021/06/02 07:05:27;;;;;;;;;;;;;;;22.08;47.57;100818.16;5036891;28;893;-56
2021/06/02 07:07:53;;;;;;;;;;;;;;;22.19;47.42;100818.78;5028031;28;881;-52
2021/06/02 07:10:20;;;;;;;;;;;;;;;22.30;47.09;100824.88;5032904;28;1969;-54
2021/06/02 07:12:46;;;;;;;;;;;;;;;22.31;47.07;100823.75;5036776;28;1065;-57
2021/06/02 07:15:12;;;;;;;;;;;;;;;22.51;46.77;100828.88;5033701;28;1208;-55
2021/06/02 07:17:38;;;;;;;;;;;;;;;22.46;46.85;100828.97;5037189;28;936;-53
2021/06/02 07:20:03;;;;;;;;;;;;;;;22.16;47.69;100842.38;5037892;28;893;-47
2021/06/02 07:22:29;;;;;;;;;;;;;;;21.70;48.72;100835.81;5036958;28;764;-47
2021/06/02 07:24:54;;;;;;;;;;;;;;;21.50;49.11;100837.03;5030590;28;946;-60
2021/06/02 07:27:20;;;;;;;;;;;;;;;21.13;49.62;100847.06;5037844;28;1077;-54
2021/06/02 07:29:45;;;;;;;;;;;;;;;21.06;51.61;100841.13;5037945;28;1918;-56
2021/06/02 07:32:11;;;;;;;;;;;;;;;21.76;49.90;100844.84;5037635;28;948;-57
2021/06/02 07:34:36;;;;;;;;;;;;;;;22.17;48.70;100845.94;5037166;28;889;-56
2021/06/02 07:37:02;;;;;;;;;;;;;;;22.18;48.53;100842.06;5037427;28;768;-54
2021/06/02 07:39:27;;;;;;;;;;;;;;;21.86;49.25;100836.31;5036485;28;936;-52
2021/06/02 07:41:53;;;;;;;;;;;;;;;22.02;48.63;100842.38;5037442;28;936;-55
2021/06/02 07:44:18;;;;;;;;;;;;;;;21.40;48.34;100836.38;5036387;28;905;-57
2021/06/02 07:46:43;;;;;;;;;;;;;;;21.74;49.87;100847.13;5037370;28;1002;-61
2021/06/02 07:49:09;;;;;;;;;;;;;;;22.10;48.75;100848.31;5036821;28;1922;-57
2021/06/02 07:51:35;;;;;;;;;;;;;;;22.39;47.94;100840.50;5037702;28;1085;-57
2021/06/02 07:54:00;;;;;;;;;;;;;;;22.42;47.73;100847.34;5037179;28;788;-57
2021/06/02 07:56:25;;;;;;;;;;;;;;;21.85;48.85;100848.56;5036363;28;956;-57
2021/06/02 07:58:51;;;;;;;;;;;;;;;21.91;48.62;100856.72;5036822;28;928;-56
2021/06/02 08:01:16;;;;;;;;;;;;;;;21.69;48.30;100852.75;5036717;28;893;-57
2021/06/02 08:03:42;;;;;;;;;;;;;;;21.95;48.89;100860.53;5036831;28;1159;-57
2021/06/02 08:06:07;;;;;;;;;;;;;;;22.24;48.21;100860.19;5037336;28;817;-57
2021/06/02 08:08:33;;;;;;;;;;;;;;;22.52;47.39;100854.63;5036393;28;1918;-49
2021/06/02 08:10:58;;;;;;;;;;;;;;;22.17;48.19;100854.25;5037501;28;761;-58
2021/06/02 08:13:23;;;;;;;;;;;;;;;22.15;48.20;100857.34;5037159;28;840;-58
2021/06/02 08:15:49;;;;;;;;;;;;;;;21.73;48.20;100855.69;5036774;28;1037;-56
2021/06/02 08:18:14;;;;;;;;;;;;;;;21.75;49.52;100859.00;5036927;28;1035;-57
2021/06/02 08:20:40;;;;;;;;;;;;;;;22.14;48.17;100855.69;5018613;28;894;-58
2021/06/02 08:23:06;;;;;;;;;;;;;;;22.36;47.69;100840.31;5019520;28;1194;-57
2021/06/02 08:25:32;;;;;;;;;;;;;;;22.20;48.13;100859.16;5037264;28;784;-54
2021/06/02 08:27:57;;;;;;;;;;;;;;;21.98;48.56;100852.44;5036757;28;832;-57
2021/06/02 08:30:23;;;;;;;;;;;;;;;21.81;48.35;100853.06;5036814;28;1914;-54
2021/06/02 08:32:48;;;;;;;;;;;;;;;21.60;48.52;100836.03;5036329;28;995;-58
2021/06/02 08:35:18;;;;;;;;;;;;;;;21.86;49.10;100844.63;5036738;28;764;-53
2021/06/02 08:37:44;;;;;;;;;;;;;;;22.24;48.07;100842.75;5035924;28;885;-58
2021/06/02 08:40:09;;;;;;;;;;;;;;;22.49;47.15;100844.16;5035180;28;936;-59
2021/06/02 08:42:35;;;;;;;;;;;;;;;22.26;47.84;100844.09;5034415;28;871;-59
2021/06/02 08:45:00;;;;;;;;;;;;;;;22.29;47.62;100853.75;5016441;28;1220;-58
2021/06/02 08:47:26;;;;;;;;;;;;;;;21.74;48.24;100860.94;5015007;28;910;-58
2021/06/02 08:49:51;;;;;;;;;;;;;;;21.69;49.43;100855.50;5034786;28;1919;-58
2021/06/02 08:52:17;;;;;;;;;;;;;;;22.04;48.28;100855.91;5034038;28;891;-59
2021/06/02 08:54:42;;;;;;;;;;;;;;;22.34;47.77;100856.41;5033936;28;879;-58
2021/06/02 08:57:08;;;;;;;;;;;;;;;22.36;47.00;100859.69;5034651;28;940;-58
2021/06/02 08:59:34;;;;;;;;;;;;;;;22.07;48.37;100846.97;5033483;28;921;-58
2021/06/02 09:02:00;;;;;;;;;;;;;;;21.99;48.49;100848.53;5035420;28;936;-58
2021/06/02 09:04:26;;;;;;;;;;;;;;;21.53;48.45;100843.91;5035502;28;890;-58
2021/06/02 09:06:51;;;;;;;;;;;;;;;21.61;49.85;100845.97;5034216;28;906;-58
2021/06/02 09:09:17;;;;;;;;;;;;;;;22.01;48.66;100845.47;5034637;28;2290;-58
2021/06/02 09:11:43;;;;;;;;;;;;;;;22.26;47.80;100846.03;5033334;28;1097;-58
2021/06/02 09:14:29;;;;;;;;;;;;;;;22.49;47.14;100849.72;5034522;28;940;-56
2021/06/02 09:16:55;;;;;;;;;;;;;;;22.21;47.97;100849.72;5032545;28;1305;-57
2021/06/02 09:19:38;;;;;;;;;;;;;;;21.97;48.46;100856.31;5010134;28;870;-58
2021/06/02 09:22:04;;;;;;;;;;;;;;;21.60;47.97;100846.25;5033854;28;1081;-58
2021/06/02 09:24:48;;;;;;;;;;;;;;;21.75;49.23;100854.28;5033275;28;943;-58
2021/06/02 09:27:14;;;;;;;;;;;;;;;22.11;48.27;100850.78;5032921;28;1220;-58
2021/06/02 09:29:52;;;;;;;;;;;;;;;22.52;47.27;100841.56;5022407;28;1918;-59
2021/06/02 09:32:19;;;;;;;;;;;;;;;22.17;48.01;100848.72;5034316;28;905;-58
2021/06/02 09:34:47;;;;;;;;;;;;;;;22.22;48.06;100857.72;5035043;28;940;-58
2021/06/02 09:37:13;;;;;;;;;;;;;;;21.82;47.92;100854.69;5035649;28;756;-59
2021/06/02 09:39:46;;;;;;;;;;;;;;;21.58;48.53;100848.53;5035375;28;945;-58
2021/06/02 09:42:17;;;;;;;;;;;;;;;21.88;48.96;100850.69;5018445;28;1087;-57
2021/06/02 09:44:43;;;;;;;;;;;;;;;22.19;47.96;100858.34;5033318;28;940;-58
2021/06/02 09:47:09;;;;;;;;;;;;;;;22.56;47.04;100848.13;5034363;28;1200;-58
2021/06/02 09:49:56;;;;;;;;;;;;;;;22.13;48.11;100853.22;5034434;28;1910;-58
2021/06/02 09:52:37;;;;;;;;;;;;;;;22.13;47.87;100858.78;5033901;28;985;-58
2021/06/02 09:55:28;;;;;;;;;;;;;;;21.59;47.89;100855.69;5033084;28;842;-58
2021/06/02 09:57:54;;;;;;;;;;;;;;;21.79;49.04;100860.84;5023604;28;1337;-59
2021/06/02 10:00:19;;;;;;;;;;;;;;;21.96;48.57;100864.94;5032955;28;990;-58
2021/06/02 10:02:55;;;;;;;;;;;;;;;22.29;47.84;100875.91;5033732;28;948;-59
2021/06/02 10:05:24;;;;;;;;;;;;;;;22.37;47.30;100872.41;5034929;28;909;-56
2021/06/02 10:07:49;;;;;;;;;;;;;;;22.08;48.03;100881.03;5035625;28;488;-56
2021/06/02 10:10:18;;;;;;;;;;;;;;;21.88;48.12;100897.75;5034973;28;1914;-58
2021/06/02 10:13:00;;;;;;;;;;;;;;;21.49;49.55;100918.38;5034550;28;936;-46
2021/06/02 10:15:33;;;;;;;;;;;;;;;21.46;49.56;100918.97;5034778;28;1005;-58
2021/06/02 10:17:59;;;;;;;;;;;;;;;21.68;49.02;100925.81;5034922;28;932;-52
2021/06/02 10:20:25;;;;;;;;;;;;;;;21.70;48.85;100923.56;5034855;28;980;-60
2021/06/02 10:22:55;;;;;;;;;;;;;;;21.60;49.27;100920.97;5017874;28;844;-60
2021/06/02 10:25:20;;;;;;;;;;;;;;;21.52;49.40;100920.56;5033932;28;893;-55
2021/06/02 10:27:49;;;;;;;;;;;;;;;21.35;49.94;100942.41;5034081;28;907;-56
2021/06/02 10:30:15;;;;;;;;;;;;;;;21.47;49.32;100950.22;5034932;28;1989;-58
2021/06/02 10:32:41;;;;;;;;;;;;;;;21.48;49.35;100955.44;5033639;28;909;-58
2021/06/02 10:35:10;;;;;;;;;;;;;;;21.59;48.89;100949.75;5034426;28;947;-61
2021/06/02 10:37:37;;;;;;;;;;;;;;;21.32;49.89;100952.13;5035423;28;939;-61
2021/06/02 10:40:04;;;;;;;;;;;;;;;21.80;48.67;100956.59;5034224;28;881;-61
2021/06/02 10:42:39;;;;;;;;;;;;;;;21.74;48.64;100955.06;5030600;28;1236;-58
2021/06/02 10:45:07;;;;;;;;;;;;;;;21.63;48.76;100957.19;5025268;28;951;-58
2021/06/02 10:47:32;;;;;;;;;;;;;;;21.81;48.49;100961.00;5017517;28;1011;-58
2021/06/02 10:49:58;;;;;;;;;;;;;;;21.77;48.63;100961.91;5032533;28;1922;-59
2021/06/02 10:52:44;;;;;;;;;;;;;;;21.59;48.87;100956.13;5033089;28;1192;-58
2021/06/02 10:55:27;;;;;;;;;;;;;;;21.66;48.79;100969.59;5032390;28;1450;-59
2021/06/02 10:58:12;;;;;;;;;;;;;;;21.57;49.10;100963.91;5033670;28;944;-58
2021/06/02 11:00:37;;;;;;;;;;;;;;;21.80;48.61;100967.66;5035912;28;1120;-58
2021/06/02 11:03:21;;;;;;;;;;;;;;;21.86;48.25;100971.97;5037404;28;959;-58
2021/06/02 11:05:54;;;;;;;;;;;;;;;22.17;47.60;100970.56;5032945;28;901;-59
2021/06/02 11:08:20;;;;;;;;;;;;;;;22.19;47.54;100973.88;5037143;28;1977;-58
2021/06/02 11:10:51;;;;;;;;;;;;;;;22.21;47.59;100977.16;5037639;28;1097;-57
2021/06/02 11:13:16;;;;;;;;;;;;;;;21.99;47.83;100980.59;5036948;28;896;-59
2021/06/02 11:15:43;;;;;;;;;;;;;;;21.83;48.48;100978.13;5037201;28;1104;-58
2021/06/02 11:18:09;;;;;;;;;;;;;;;21.56;49.01;100978.03;5038252;28;920;-58
2021/06/02 11:20:40;;;;;;;;;;;;;;;21.85;48.44;100975.88;5038431;28;780;-59
2021/06/02 11:23:10;;;;;;;;;;;;;;;21.88;48.24;100972.50;5037772;28;938;-56
2021/06/02 11:25:35;;;;;;;;;;;;;;;22.17;47.85;100971.38;5038157;28;828;-59
2021/06/02 11:28:01;;;;;;;;;;;;;;;22.35;47.21;100977.19;5020494;28;1121;-56
2021/06/02 11:30:27;;;;;;;;;;;;;;;21.98;47.94;100995.56;5031148;28;1993;-54
2021/06/02 11:32:56;;;;;;;;;;;;;;;21.17;50.26;100991.91;5028121;28;944;-52
2021/06/02 11:35:30;;;;;;;;;;;;;;;21.41;49.78;100988.22;5035925;28;936;-56
2021/06/02 11:37:55;;;;;;;;;;;;;;;21.50;49.31;100986.41;5032892;28;1422;-54
2021/06/02 11:40:21;;;;;;;;;;;;;;;21.65;48.99;100981.78;5018500;28;938;-58
2021/06/02 11:42:48;;;;;;;;;;;;;;;21.91;48.11;100984.91;5035432;28;924;-58
2021/06/02 11:45:14;;;;;;;;;;;;;;;22.02;47.82;100988.28;5036190;28;885;-56
2021/06/02 11:47:49;;;;;;;;;;;;;;;22.01;47.96;100970.88;5035751;28;1084;-54
2021/06/02 11:50:17;;;;;;;;;;;;;;;22.02;47.93;100975.28;5036052;28;1914;-56
2021/06/02 11:52:43;;;;;;;;;;;;;;;21.88;48.45;100969.72;5035880;28;1128;-54
2021/06/02 11:55:09;;;;;;;;;;;;;;;22.14;47.62;100960.13;5036315;28;893;-54
2021/06/02 11:57:36;;;;;;;;;;;;;;;22.10;47.72;100968.22;5005625;28;949;-58
2021/06/02 12:00:14;;;;;;;;;;;;;;;22.16;47.54;100969.75;5033502;28;908;-58
2021/06/02 12:02:39;;;;;;;;;;;;;;;22.17;47.61;100959.50;5036240;28;908;-55
2021/06/02 12:05:20;;;;;;;;;;;;;;;22.18;47.70;100953.66;5034109;28;866;-59
2021/06/02 12:07:50;;;;;;;;;;;;;;;22.27;47.35;100950.97;5035016;28;913;-58
2021/06/02 12:10:15;;;;;;;;;;;;;;;22.31;47.21;100959.50;5037281;28;1981;-60
2021/06/02 12:12:42;;;;;;;;;;;;;;;22.30;47.21;100947.59;5035277;28;890;-54
2021/06/02 12:15:07;;;;;;;;;;;;;;;22.39;47.08;100950.50;5035391;28;886;-61
2021/06/02 12:17:33;;;;;;;;;;;;;;;21.99;48.06;100947.38;5035706;28;1044;-62
2021/06/02 12:19:59;;;;;;;;;;;;;;;21.99;48.08;100947.38;5036426;28;881;-59
2021/06/02 12:22:25;;;;;;;;;;;;;;;21.65;47.40;100949.38;5017591;28;1376;-59
2021/06/02 12:25:19;;;;;;;;;;;;;;;21.83;48.63;100939.38;5035811;28;900;-58
2021/06/02 12:27:45;;;;;;;;;;;;;;;22.18;47.72;100939.81;5017896;28;1231;-54
2021/06/02 12:30:14;;;;;;;;;;;;;;;22.49;46.72;100939.19;5036145;28;1906;-59
2021/06/02 12:32:43;;;;;;;;;;;;;;;22.21;47.58;100925.31;5035794;28;991;-58
2021/06/02 12:35:47;;;;;;;;;;;;;;;22.10;47.67;100925.84;5034944;28;950;-59
2021/06/02 12:38:16;;;;;;;;;;;;;;;21.57;47.76;100935.44;4954596;29;1382;-57
2021/06/02 12:40:43;;;;;;;;;;;;;;;21.45;49.47;100928.41;4954533;29;931;-59
2021/06/02 12:43:09;;;;;;;;;;;;;;;22.03;48.12;100929.88;4995324;28;981;-59
2021/06/02 12:45:34;;;;;;;;;;;;;;;22.45;47.12;100937.34;5035350;28;930;-59
2021/06/02 12:48:00;;;;;;;;;;;;;;;22.39;46.94;100931.91;5034704;28;959;-57
2021/06/02 12:50:40;;;;;;;;;;;;;;;22.26;47.35;100935.50;5027721;28;1910;-59
2021/06/02 12:53:06;;;;;;;;;;;;;;;21.97;47.06;100933.84;5033331;28;1157;-60
2021/06/02 12:55:32;;;;;;;;;;;;;;;21.72;47.16;100943.44;5033704;28;948;-60
2021/06/02 12:58:14;;;;;;;;;;;;;;;21.65;49.01;100937.50;5024841;28;926;-56
2021/06/02 13:00:40;;;;;;;;;;;;;;;22.20;47.63;100940.31;5033117;28;925;-57
2021/06/02 13:03:06;;;;;;;;;;;;;;;22.56;46.73;100942.34;5019139;28;959;-56
2021/06/02 13:05:31;;;;;;;;;;;;;;;22.24;47.32;100950.78;5035068;28;885;-58
2021/06/02 13:08:03;;;;;;;;;;;;;;;22.12;47.57;100952.13;5035000;28;912;-59
2021/06/02 13:10:29;;;;;;;;;;;;;;;21.45;48.21;100956.06;5035624;28;1977;-53